Portree, United Kingdom
Current Conditions -  °F | °C
As of 9:20 PM on Friday 31 Oct 2014 (Local Time) from EGPL Reporting Station
Clear Clear  
Wind Chill: 52°   Ceiling: Unl
Heat Index: 52°   Visibility: 6mi
Dew Point: 50°   Wind: 15mph
Humidity: 94%   Direction: 210°SSW
Pressure: 29.53"   Gusts: NA
Location:  57.41°N, 6.19°W
Report Text: EGPL 312120Z AUTO 21013KT 9999 NCD 11/10 Q1000
Loading
Personal Weather Stations






























Interactive Weather Map
Tropical Storm Tracking
New forecast layout! Learn more

10-Day Weather Forecast

Advertisements
Track Severe Weather on mobile